sensor_id;sensor_type;location;lat;lon;timestamp;pressure;altitude;pressure_sealevel;temperature;humidity
51053;BME280;37093;37.716;-122.060;2024-02-23T00:00:40;100568.39;;;22.41;33.41
51053;BME280;37093;37.716;-122.060;2024-02-23T00:03:04;100560.71;;;23.58;31.91
51053;BME280;37093;37.716;-122.060;2024-02-23T00:05:29;100557.41;;;23.24;32.43
51053;BME280;37093;37.716;-122.060;2024-02-23T00:07:55;100553.05;;;23.83;30.96
51053;BME280;37093;37.716;-122.060;2024-02-23T00:10:20;100549.33;;;24.18;31.17
51053;BME280;37093;37.716;-122.060;2024-02-23T00:12:47;100544.79;;;24.74;30.18
51053;BME280;37093;37.716;-122.060;2024-02-23T00:15:10;100543.18;;;24.87;29.11
51053;BME280;37093;37.716;-122.060;2024-02-23T00:17:36;100541.67;;;24.72;29.62
51053;BME280;37093;37.716;-122.060;2024-02-23T00:20:01;100544.56;;;24.49;29.34
51053;BME280;37093;37.716;-122.060;2024-02-23T00:22:25;100546.66;;;23.82;30.23
51053;BME280;37093;37.716;-122.060;2024-02-23T00:24:53;100545.50;;;23.99;30.39
51053;BME280;37093;37.716;-122.060;2024-02-23T00:27:17;100544.47;;;23.87;30.41
51053;BME280;37093;37.716;-122.060;2024-02-23T00:29:42;100545.69;;;24.07;30.73
51053;BME280;37093;37.716;-122.060;2024-02-23T00:32:07;100546.07;;;23.38;31.04
51053;BME280;37093;37.716;-122.060;2024-02-23T00:34:32;100542.75;;;23.62;31.53
51053;BME280;37093;37.716;-122.060;2024-02-23T00:36:59;100544.21;;;24.09;30.81
51053;BME280;37093;37.716;-122.060;2024-02-23T00:39:23;100545.40;;;22.82;30.61
51053;BME280;37093;37.716;-122.060;2024-02-23T00:41:50;100539.13;;;24.33;29.92
51053;BME280;37093;37.716;-122.060;2024-02-23T00:44:14;100539.96;;;23.18;30.53
51053;BME280;37093;37.716;-122.060;2024-02-23T00:46:39;100542.19;;;24.16;30.97
51053;BME280;37093;37.716;-122.060;2024-02-23T00:49:07;100542.07;;;24.46;30.92
51053;BME280;37093;37.716;-122.060;2024-02-23T00:51:30;100545.06;;;24.50;30.20
51053;BME280;37093;37.716;-122.060;2024-02-23T00:54:13;100545.44;;;24.64;31.22
51053;BME280;37093;37.716;-122.060;2024-02-23T00:56:21;100551.59;;;24.08;31.58
51053;BME280;37093;37.716;-122.060;2024-02-23T00:58:48;100559.87;;;21.80;33.97
51053;BME280;37093;37.716;-122.060;2024-02-23T01:01:13;100563.79;;;19.92;37.54
51053;BME280;37093;37.716;-122.060;2024-02-23T01:03:36;100561.74;;;21.90;35.69
51053;BME280;37093;37.716;-122.060;2024-02-23T01:06:01;100561.73;;;21.54;36.22
51053;BME280;37093;37.716;-122.060;2024-02-23T01:08:32;100557.48;;;23.17;35.17
51053;BME280;37093;37.716;-122.060;2024-02-23T01:10:52;100561.25;;;23.34;34.91
51053;BME280;37093;37.716;-122.060;2024-02-23T01:13:18;100566.04;;;22.19;36.44
51053;BME280;37093;37.716;-122.060;2024-02-23T01:15:43;100578.20;;;21.32;37.37
51053;BME280;37093;37.716;-122.060;2024-02-23T01:18:07;100572.34;;;21.80;37.60
51053;BME280;37093;37.716;-122.060;2024-02-23T01:20:33;100570.46;;;22.73;36.99
51053;BME280;37093;37.716;-122.060;2024-02-23T01:22:58;100568.52;;;22.30;36.92
51053;BME280;37093;37.716;-122.060;2024-02-23T01:25:27;100569.52;;;22.19;37.98
51053;BME280;37093;37.716;-122.060;2024-02-23T01:27:49;100573.12;;;19.62;40.92
51053;BME280;37093;37.716;-122.060;2024-02-23T01:30:16;100572.13;;;20.48;40.45
51053;BME280;37093;37.716;-122.060;2024-02-23T01:32:39;100572.89;;;21.70;40.55
51053;BME280;37093;37.716;-122.060;2024-02-23T01:35:06;100573.10;;;21.76;40.02
51053;BME280;37093;37.716;-122.060;2024-02-23T01:37:31;100567.37;;;22.51;38.47
51053;BME280;37093;37.716;-122.060;2024-02-23T01:39:57;100570.12;;;18.31;44.01
51053;BME280;37093;37.716;-122.060;2024-02-23T01:42:19;100568.49;;;18.78;45.62
51053;BME280;37093;37.716;-122.060;2024-02-23T01:44:44;100570.82;;;16.11;53.34
51053;BME280;37093;37.716;-122.060;2024-02-23T01:47:09;100561.03;;;19.28;47.48
51053;BME280;37093;37.716;-122.060;2024-02-23T01:49:41;100557.41;;;20.54;44.66
51053;BME280;37093;37.716;-122.060;2024-02-23T01:52:04;100562.97;;;19.38;46.93
51053;BME280;37093;37.716;-122.060;2024-02-23T01:54:25;100557.91;;;20.20;44.60
51053;BME280;37093;37.716;-122.060;2024-02-23T01:56:54;100557.06;;;19.63;44.70
51053;BME280;37093;37.716;-122.060;2024-02-23T01:59:15;100562.24;;;19.43;44.64
51053;BME280;37093;37.716;-122.060;2024-02-23T02:01:45;100556.56;;;19.73;45.42
51053;BME280;37093;37.716;-122.060;2024-02-23T02:04:05;100556.29;;;20.45;42.95
51053;BME280;37093;37.716;-122.060;2024-02-23T02:06:32;100554.88;;;19.87;43.21
51053;BME280;37093;37.716;-122.060;2024-02-23T02:09:00;100551.80;;;19.19;44.56
51053;BME280;37093;37.716;-122.060;2024-02-23T02:11:21;100547.90;;;19.05;44.31
51053;BME280;37093;37.716;-122.060;2024-02-23T02:13:45;100553.52;;;16.95;47.67
51053;BME280;37093;37.716;-122.060;2024-02-23T02:16:10;100549.90;;;17.61;48.82
51053;BME280;37093;37.716;-122.060;2024-02-23T02:18:34;100552.12;;;19.05;46.64
51053;BME280;37093;37.716;-122.060;2024-02-23T02:21:00;100550.84;;;17.80;50.34
51053;BME280;37093;37.716;-122.060;2024-02-23T02:23:25;100551.14;;;18.09;50.44
51053;BME280;37093;37.716;-122.060;2024-02-23T02:25:57;100549.52;;;19.29;47.46
51053;BME280;37093;37.716;-122.060;2024-02-23T02:28:16;100556.53;;;16.85;51.05
51053;BME280;37093;37.716;-122.060;2024-02-23T02:30:40;100557.26;;;16.37;56.49
51053;BME280;37093;37.716;-122.060;2024-02-23T02:33:08;100560.26;;;16.92;53.86
51053;BME280;37093;37.716;-122.060;2024-02-23T02:35:32;100558.67;;;16.50;53.92
51053;BME280;37093;37.716;-122.060;2024-02-23T02:38:03;100557.62;;;18.42;49.63
51053;BME280;37093;37.716;-122.060;2024-02-23T02:40:21;100559.40;;;17.86;50.74
51053;BME280;37093;37.716;-122.060;2024-02-23T02:42:47;100569.70;;;17.15;52.69
51053;BME280;37093;37.716;-122.060;2024-02-23T02:45:13;100564.47;;;17.36;53.04
51053;BME280;37093;37.716;-122.060;2024-02-23T02:47:37;100560.07;;;18.05;49.92
51053;BME280;37093;37.716;-122.060;2024-02-23T02:50:04;100562.74;;;18.58;47.78
51053;BME280;37093;37.716;-122.060;2024-02-23T02:52:27;100567.58;;;19.07;47.92
51053;BME280;37093;37.716;-122.060;2024-02-23T02:54:52;100577.07;;;16.99;54.24
51053;BME280;37093;37.716;-122.060;2024-02-23T02:57:17;100572.34;;;17.93;51.97
51053;BME280;37093;37.716;-122.060;2024-02-23T02:59:42;100578.24;;;16.24;54.30
51053;BME280;37093;37.716;-122.060;2024-02-23T03:02:12;100570.36;;;18.22;51.96
51053;BME280;37093;37.716;-122.060;2024-02-23T03:04:32;100575.00;;;19.04;48.55
51053;BME280;37093;37.716;-122.060;2024-02-23T03:06:58;100578.10;;;17.83;50.57
51053;BME280;37093;37.716;-122.060;2024-02-23T03:09:22;100585.39;;;18.01;50.57
51053;BME280;37093;37.716;-122.060;2024-02-23T03:11:49;100589.74;;;19.12;48.05
51053;BME280;37093;37.716;-122.060;2024-02-23T03:14:14;100595.72;;;18.82;48.20
51053;BME280;37093;37.716;-122.060;2024-02-23T03:16:37;100598.71;;;19.35;46.72
51053;BME280;37093;37.716;-122.060;2024-02-23T03:19:03;100605.38;;;18.04;49.23
51053;BME280;37093;37.716;-122.060;2024-02-23T03:21:27;100601.66;;;18.52;48.40
51053;BME280;37093;37.716;-122.060;2024-02-23T03:23:54;100603.89;;;19.24;47.04
51053;BME280;37093;37.716;-122.060;2024-02-23T03:26:18;100607.59;;;19.37;46.39
51053;BME280;37093;37.716;-122.060;2024-02-23T03:28:42;100615.00;;;18.04;49.20
51053;BME280;37093;37.716;-122.060;2024-02-23T03:31:08;100617.91;;;18.32;49.85
51053;BME280;37093;37.716;-122.060;2024-02-23T03:33:33;100617.84;;;18.27;49.76
51053;BME280;37093;37.716;-122.060;2024-02-23T03:36:00;100618.99;;;18.17;50.08
51053;BME280;37093;37.716;-122.060;2024-02-23T03:38:24;100620.90;;;17.69;51.04
51053;BME280;37093;37.716;-122.060;2024-02-23T03:40:50;100615.47;;;18.42;49.12
51053;BME280;37093;37.716;-122.060;2024-02-23T03:43:13;100618.03;;;19.05;47.51
51053;BME280;37093;37.716;-122.060;2024-02-23T03:45:38;100622.24;;;15.62;51.44
51053;BME280;37093;37.716;-122.060;2024-02-23T03:48:05;100620.97;;;17.98;49.50
51053;BME280;37093;37.716;-122.060;2024-02-23T03:50:28;100618.84;;;17.51;51.46
51053;BME280;37093;37.716;-122.060;2024-02-23T03:52:53;100624.46;;;17.45;50.96
51053;BME280;37093;37.716;-122.060;2024-02-23T03:55:19;100617.70;;;18.16;49.65
51053;BME280;37093;37.716;-122.060;2024-02-23T03:57:49;100613.51;;;18.24;48.51
51053;BME280;37093;37.716;-122.060;2024-02-23T04:00:09;100612.84;;;18.48;47.26
51053;BME280;37093;37.716;-122.060;2024-02-23T04:02:34;100613.61;;;18.43;46.88
51053;BME280;37093;37.716;-122.060;2024-02-23T04:04:59;100623.00;;;17.07;49.93
51053;BME280;37093;37.716;-122.060;2024-02-23T04:07:25;100625.59;;;17.21;49.32
51053;BME280;37093;37.716;-122.060;2024-02-23T04:09:49;100626.61;;;16.81;49.46
51053;BME280;37093;37.716;-122.060;2024-02-23T04:12:14;100627.01;;;16.33;52.03
51053;BME280;37093;37.716;-122.060;2024-02-23T04:14:39;100632.65;;;14.94;58.04
51053;BME280;37093;37.716;-122.060;2024-02-23T04:17:05;100631.73;;;16.91;52.02
51053;BME280;37093;37.716;-122.060;2024-02-23T04:19:29;100629.40;;;14.01;54.95
51053;BME280;37093;37.716;-122.060;2024-02-23T04:21:57;100626.78;;;16.44;52.20
51053;BME280;37093;37.716;-122.060;2024-02-23T04:24:19;100628.66;;;16.68;50.97
51053;BME280;37093;37.716;-122.060;2024-02-23T04:26:46;100632.41;;;17.22;49.31
51053;BME280;37093;37.716;-122.060;2024-02-23T04:29:10;100633.58;;;16.83;48.85
51053;BME280;37093;37.716;-122.060;2024-02-23T04:31:38;100624.74;;;18.33;46.29
51053;BME280;37093;37.716;-122.060;2024-02-23T04:34:00;100626.21;;;16.29;49.92
51053;BME280;37093;37.716;-122.060;2024-02-23T04:36:27;100627.77;;;17.83;47.55
51053;BME280;37093;37.716;-122.060;2024-02-23T04:38:51;100629.29;;;17.33;48.17
51053;BME280;37093;37.716;-122.060;2024-02-23T04:41:18;100633.68;;;14.88;52.73
51053;BME280;37093;37.716;-122.060;2024-02-23T04:43:41;100637.38;;;15.21;55.23
51053;BME280;37093;37.716;-122.060;2024-02-23T04:46:06;100640.49;;;18.00;48.10
51053;BME280;37093;37.716;-122.060;2024-02-23T04:48:30;100640.58;;;18.69;45.06
51053;BME280;37093;37.716;-122.060;2024-02-23T04:50:58;100635.88;;;19.15;43.71
51053;BME280;37093;37.716;-122.060;2024-02-23T04:53:22;100638.24;;;19.53;43.22
51053;BME280;37093;37.716;-122.060;2024-02-23T04:55:47;100639.12;;;19.57;42.58
51053;BME280;37093;37.716;-122.060;2024-02-23T04:58:14;100642.75;;;19.67;41.99
51053;BME280;37093;37.716;-122.060;2024-02-23T05:00:37;100644.97;;;20.00;41.61
51053;BME280;37093;37.716;-122.060;2024-02-23T05:03:02;100652.13;;;20.13;41.27
51053;BME280;37093;37.716;-122.060;2024-02-23T05:05:27;100649.12;;;20.13;41.26
51053;BME280;37093;37.716;-122.060;2024-02-23T05:07:51;100650.84;;;20.06;41.04
51053;BME280;37093;37.716;-122.060;2024-02-23T05:10:16;100652.62;;;20.24;40.78
51053;BME280;37093;37.716;-122.060;2024-02-23T05:12:41;100654.20;;;20.33;40.14
51053;BME280;37093;37.716;-122.060;2024-02-23T05:15:08;100655.51;;;20.35;40.02
51053;BME280;37093;37.716;-122.060;2024-02-23T05:17:31;100657.03;;;20.29;39.47
51053;BME280;37093;37.716;-122.060;2024-02-23T05:20:00;100657.24;;;20.41;39.26
51053;BME280;37093;37.716;-122.060;2024-02-23T05:22:22;100660.44;;;20.44;39.45
51053;BME280;37093;37.716;-122.060;2024-02-23T05:24:47;100665.00;;;20.53;39.87
51053;BME280;37093;37.716;-122.060;2024-02-23T05:27:12;100662.03;;;20.27;39.79
51053;BME280;37093;37.716;-122.060;2024-02-23T05:29:36;100663.45;;;20.40;39.44
51053;BME280;37093;37.716;-122.060;2024-02-23T05:32:02;100666.33;;;20.37;39.14
51053;BME280;37093;37.716;-122.060;2024-02-23T05:34:28;100667.79;;;20.29;38.82
51053;BME280;37093;37.716;-122.060;2024-02-23T05:36:53;100667.90;;;20.17;39.40
51053;BME280;37093;37.716;-122.060;2024-02-23T05:39:18;100670.71;;;20.29;39.55
51053;BME280;37093;37.716;-122.060;2024-02-23T05:41:45;100674.11;;;20.32;39.95
51053;BME280;37093;37.716;-122.060;2024-02-23T05:44:08;100675.70;;;20.43;39.86
51053;BME280;37093;37.716;-122.060;2024-02-23T05:46:33;100674.46;;;20.22;39.97
51053;BME280;37093;37.716;-122.060;2024-02-23T05:48:59;100674.20;;;20.40;39.19
51053;BME280;37093;37.716;-122.060;2024-02-23T05:51:24;100674.34;;;20.16;39.25
51053;BME280;37093;37.716;-122.060;2024-02-23T05:53:48;100676.34;;;19.89;39.77
51053;BME280;37093;37.716;-122.060;2024-02-23T05:56:13;100680.77;;;19.74;40.39
51053;BME280;37093;37.716;-122.060;2024-02-23T05:58:39;100682.86;;;19.94;40.65
51053;BME280;37093;37.716;-122.060;2024-02-23T06:01:04;100684.88;;;19.75;40.40
51053;BME280;37093;37.716;-122.060;2024-02-23T06:03:30;100682.59;;;19.92;40.02
51053;BME280;37093;37.716;-122.060;2024-02-23T06:05:56;100680.60;;;19.95;40.39
51053;BME280;37093;37.716;-122.060;2024-02-23T06:08:19;100679.18;;;19.86;39.94
51053;BME280;37093;37.716;-122.060;2024-02-23T06:10:45;100680.73;;;19.87;40.23
51053;BME280;37093;37.716;-122.060;2024-02-23T06:13:11;100682.48;;;19.79;40.49
51053;BME280;37093;37.716;-122.060;2024-02-23T06:15:35;100686.49;;;19.74;40.57
51053;BME280;37093;37.716;-122.060;2024-02-23T06:18:00;100682.92;;;19.85;40.35
51053;BME280;37093;37.716;-122.060;2024-02-23T06:20:25;100682.01;;;19.81;39.86
51053;BME280;37093;37.716;-122.060;2024-02-23T06:22:50;100681.45;;;19.89;40.27
51053;BME280;37093;37.716;-122.060;2024-02-23T06:25:17;100683.02;;;19.89;40.27
51053;BME280;37093;37.716;-122.060;2024-02-23T06:27:41;100683.86;;;19.69;40.58
51053;BME280;37093;37.716;-122.060;2024-02-23T06:30:06;100686.20;;;19.73;40.55
51053;BME280;37093;37.716;-122.060;2024-02-23T06:32:31;100686.58;;;19.67;40.46
51053;BME280;37093;37.716;-122.060;2024-02-23T06:34:58;100684.69;;;19.61;40.52
51053;BME280;37093;37.716;-122.060;2024-02-23T06:37:20;100689.55;;;19.42;40.26
51053;BME280;37093;37.716;-122.060;2024-02-23T06:39:46;100682.89;;;19.39;40.79
51053;BME280;37093;37.716;-122.060;2024-02-23T06:42:11;100683.11;;;19.15;41.26
51053;BME280;37093;37.716;-122.060;2024-02-23T06:44:36;100683.71;;;18.92;41.95
51053;BME280;37093;37.716;-122.060;2024-02-23T06:47:01;100681.98;;;18.75;42.04
51053;BME280;37093;37.716;-122.060;2024-02-23T06:49:26;100679.74;;;18.67;42.72
51053;BME280;37093;37.716;-122.060;2024-02-23T06:51:51;100670.96;;;18.84;42.48
51053;BME280;37093;37.716;-122.060;2024-02-23T06:54:17;100671.90;;;18.80;42.91
51053;BME280;37093;37.716;-122.060;2024-02-23T06:56:41;100668.80;;;18.75;42.90
51053;BME280;37093;37.716;-122.060;2024-02-23T06:59:06;100663.12;;;18.75;42.91
51053;BME280;37093;37.716;-122.060;2024-02-23T07:01:31;100661.67;;;18.58;43.00
51053;BME280;37093;37.716;-122.060;2024-02-23T07:04:00;100665.85;;;18.37;43.94
51053;BME280;37093;37.716;-122.060;2024-02-23T07:06:21;100668.87;;;18.57;43.42
51053;BME280;37093;37.716;-122.060;2024-02-23T07:08:46;100666.44;;;18.71;43.69
51053;BME280;37093;37.716;-122.060;2024-02-23T07:11:22;100664.24;;;18.63;43.21
51053;BME280;37093;37.716;-122.060;2024-02-23T07:13:36;100667.76;;;18.46;43.27
51053;BME280;37093;37.716;-122.060;2024-02-23T07:16:06;100676.72;;;18.23;44.47
51053;BME280;37093;37.716;-122.060;2024-02-23T07:18:27;100677.51;;;18.23;44.27
51053;BME280;37093;37.716;-122.060;2024-02-23T07:20:53;100680.07;;;18.31;44.77
51053;BME280;37093;37.716;-122.060;2024-02-23T07:23:18;100676.95;;;18.17;45.08
51053;BME280;37093;37.716;-122.060;2024-02-23T07:25:43;100673.28;;;18.25;44.93
51053;BME280;37093;37.716;-122.060;2024-02-23T07:28:08;100675.90;;;17.76;45.25
51053;BME280;37093;37.716;-122.060;2024-02-23T07:30:32;100675.03;;;17.89;45.26
51053;BME280;37093;37.716;-122.060;2024-02-23T07:32:58;100677.07;;;18.16;45.27
51053;BME280;37093;37.716;-122.060;2024-02-23T07:35:23;100676.72;;;17.54;45.93
51053;BME280;37093;37.716;-122.060;2024-02-23T07:37:51;100670.22;;;17.10;47.67
51053;BME280;37093;37.716;-122.060;2024-02-23T07:40:17;100675.34;;;17.44;47.36
51053;BME280;37093;37.716;-122.060;2024-02-23T07:42:39;100675.19;;;16.58;48.58
51053;BME280;37093;37.716;-122.060;2024-02-23T07:45:03;100680.61;;;16.48;50.52
51053;BME280;37093;37.716;-122.060;2024-02-23T07:47:31;100679.97;;;17.19;48.97
51053;BME280;37093;37.716;-122.060;2024-02-23T07:50:01;100679.06;;;16.96;49.96
51053;BME280;37093;37.716;-122.060;2024-02-23T07:52:20;100678.55;;;16.98;49.90
51053;BME280;37093;37.716;-122.060;2024-02-23T07:54:46;100678.90;;;17.36;49.21
51053;BME280;37093;37.716;-122.060;2024-02-23T07:57:09;100680.16;;;17.25;48.95
51053;BME280;37093;37.716;-122.060;2024-02-23T07:59:34;100677.78;;;17.69;48.23
51053;BME280;37093;37.716;-122.060;2024-02-23T08:01:59;100671.37;;;16.78;50.08
51053;BME280;37093;37.716;-122.060;2024-02-23T08:04:28;100677.73;;;17.57;48.76
51053;BME280;37093;37.716;-122.060;2024-02-23T08:06:49;100682.58;;;16.18;50.64
51053;BME280;37093;37.716;-122.060;2024-02-23T08:09:16;100684.13;;;16.76;50.79
51053;BME280;37093;37.716;-122.060;2024-02-23T08:11:39;100683.59;;;17.20;49.90
51053;BME280;37093;37.716;-122.060;2024-02-23T08:14:04;100685.38;;;16.37;51.78
51053;BME280;37093;37.716;-122.060;2024-02-23T08:16:30;100678.23;;;17.08;50.22
51053;BME280;37093;37.716;-122.060;2024-02-23T08:18:56;100685.04;;;15.46;53.13
51053;BME280;37093;37.716;-122.060;2024-02-23T08:21:27;100680.48;;;17.20;49.45
51053;BME280;37093;37.716;-122.060;2024-02-23T08:23:44;100680.63;;;17.30;48.84
51053;BME280;37093;37.716;-122.060;2024-02-23T08:26:09;100677.86;;;17.69;47.80
51053;BME280;37093;37.716;-122.060;2024-02-23T08:28:36;100676.53;;;17.21;49.23
51053;BME280;37093;37.716;-122.060;2024-02-23T08:31:00;100678.28;;;16.80;50.14
51053;BME280;37093;37.716;-122.060;2024-02-23T08:33:24;100672.45;;;16.77;51.36
51053;BME280;37093;37.716;-122.060;2024-02-23T08:35:57;100671.66;;;16.25;52.51
51053;BME280;37093;37.716;-122.060;2024-02-23T08:38:15;100670.31;;;16.07;53.76
51053;BME280;37093;37.716;-122.060;2024-02-23T08:40:47;100668.97;;;15.95;53.82
51053;BME280;37093;37.716;-122.060;2024-02-23T08:43:05;100663.25;;;16.51;51.68
51053;BME280;37093;37.716;-122.060;2024-02-23T08:45:30;100656.29;;;16.99;50.56
51053;BME280;37093;37.716;-122.060;2024-02-23T08:48:41;100661.03;;;16.90;50.46
51053;BME280;37093;37.716;-122.060;2024-02-23T08:50:40;100663.39;;;16.63;51.42
51053;BME280;37093;37.716;-122.060;2024-02-23T08:53:05;100665.82;;;16.76;50.96
51053;BME280;37093;37.716;-122.060;2024-02-23T08:55:29;100668.21;;;16.43;51.00
51053;BME280;37093;37.716;-122.060;2024-02-23T08:58:19;100665.40;;;16.55;50.80
51053;BME280;37093;37.716;-122.060;2024-02-23T09:00:20;100662.97;;;16.12;51.57
51053;BME280;37093;37.716;-122.060;2024-02-23T09:02:45;100664.27;;;16.53;50.85
51053;BME280;37093;37.716;-122.060;2024-02-23T09:05:14;100666.29;;;16.28;52.15
51053;BME280;37093;37.716;-122.060;2024-02-23T09:07:34;100660.92;;;16.54;51.29
51053;BME280;37093;37.716;-122.060;2024-02-23T09:09:59;100657.20;;;16.35;51.34
51053;BME280;37093;37.716;-122.060;2024-02-23T09:12:25;100654.02;;;17.00;49.72
51053;BME280;37093;37.716;-122.060;2024-02-23T09:14:50;100651.52;;;16.76;50.06
51053;BME280;37093;37.716;-122.060;2024-02-23T09:17:23;100656.22;;;17.00;49.28
51053;BME280;37093;37.716;-122.060;2024-02-23T09:19:41;100653.99;;;17.05;49.26
51053;BME280;37093;37.716;-122.060;2024-02-23T09:22:05;100656.89;;;17.30;48.59
51053;BME280;37093;37.716;-122.060;2024-02-23T09:24:31;100656.70;;;17.63;47.69
51053;BME280;37093;37.716;-122.060;2024-02-23T09:27:01;100656.94;;;17.55;47.69
51053;BME280;37093;37.716;-122.060;2024-02-23T09:29:21;100652.20;;;17.31;47.47
51053;BME280;37093;37.716;-122.060;2024-02-23T09:31:45;100651.35;;;16.93;48.64
51053;BME280;37093;37.716;-122.060;2024-02-23T09:34:11;100652.99;;;17.05;48.35
51053;BME280;37093;37.716;-122.060;2024-02-23T09:36:35;100653.34;;;17.43;47.59
51053;BME280;37093;37.716;-122.060;2024-02-23T09:39:04;100651.25;;;17.48;47.65
51053;BME280;37093;37.716;-122.060;2024-02-23T09:41:33;100652.53;;;17.62;46.81
51053;BME280;37093;37.716;-122.060;2024-02-23T09:43:51;100645.95;;;16.79;47.65
51053;BME280;37093;37.716;-122.060;2024-02-23T09:46:17;100647.54;;;16.40;49.42
51053;BME280;37093;37.716;-122.060;2024-02-23T09:48:42;100643.51;;;16.88;48.45
51053;BME280;37093;37.716;-122.060;2024-02-23T09:51:07;100637.97;;;16.66;49.75
51053;BME280;37093;37.716;-122.060;2024-02-23T09:54:04;100635.91;;;16.78;49.08
51053;BME280;37093;37.716;-122.060;2024-02-23T09:56:29;100635.94;;;16.35;49.65
51053;BME280;37093;37.716;-122.060;2024-02-23T09:59:03;100631.13;;;16.63;49.98
51053;BME280;37093;37.716;-122.060;2024-02-23T10:01:27;100631.00;;;16.62;49.78
51053;BME280;37093;37.716;-122.060;2024-02-23T10:03:49;100627.44;;;16.65;50.01
51053;BME280;37093;37.716;-122.060;2024-02-23T10:06:10;100628.68;;;16.39;49.79
51053;BME280;37093;37.716;-122.060;2024-02-23T10:08:35;100621.77;;;16.81;49.26
51053;BME280;37093;37.716;-122.060;2024-02-23T10:11:02;100619.99;;;16.74;49.79
51053;BME280;37093;37.716;-122.060;2024-02-23T10:13:25;100619.42;;;16.64;49.27
51053;BME280;37093;37.716;-122.060;2024-02-23T10:15:56;100613.84;;;16.52;49.87
51053;BME280;37093;37.716;-122.060;2024-02-23T10:18:17;100609.33;;;16.27;50.47
51053;BME280;37093;37.716;-122.060;2024-02-23T10:20:44;100603.68;;;15.84;52.02
51053;BME280;37093;37.716;-122.060;2024-02-23T10:23:08;100601.03;;;15.79;52.39
51053;BME280;37093;37.716;-122.060;2024-02-23T10:25:35;100600.30;;;15.76;51.89
51053;BME280;37093;37.716;-122.060;2024-02-23T10:28:00;100600.12;;;16.27;51.47
51053;BME280;37093;37.716;-122.060;2024-02-23T10:30:22;100593.95;;;15.95;51.42
51053;BME280;37093;37.716;-122.060;2024-02-23T10:32:47;100589.81;;;16.05;51.63
51053;BME280;37093;37.716;-122.060;2024-02-23T10:35:15;100584.70;;;15.78;52.38
51053;BME280;37093;37.716;-122.060;2024-02-23T10:37:38;100580.53;;;16.25;51.25
51053;BME280;37093;37.716;-122.060;2024-02-23T10:40:03;100575.93;;;16.48;50.88
51053;BME280;37093;37.716;-122.060;2024-02-23T10:42:33;100572.03;;;16.26;51.29
51053;BME280;37093;37.716;-122.060;2024-02-23T10:44:55;100573.80;;;16.64;50.07
51053;BME280;37093;37.716;-122.060;2024-02-23T10:47:19;100568.61;;;16.92;49.28
51053;BME280;37093;37.716;-122.060;2024-02-23T10:49:44;100560.82;;;15.83;51.51
51053;BME280;37093;37.716;-122.060;2024-02-23T10:52:10;100551.12;;;15.74;51.98
51053;BME280;37093;37.716;-122.060;2024-02-23T10:54:35;100549.79;;;16.37;50.94
51053;BME280;37093;37.716;-122.060;2024-02-23T10:56:59;100547.75;;;16.88;49.78
51053;BME280;37093;37.716;-122.060;2024-02-23T10:59:25;100545.96;;;16.62;49.77
51053;BME280;37093;37.716;-122.060;2024-02-23T11:01:51;100542.67;;;17.03;48.76
51053;BME280;37093;37.716;-122.060;2024-02-23T11:04:15;100540.80;;;17.16;48.34
51053;BME280;37093;37.716;-122.060;2024-02-23T11:06:39;100536.51;;;17.30;47.31
51053;BME280;37093;37.716;-122.060;2024-02-23T11:09:14;100533.12;;;17.46;46.65
51053;BME280;37093;37.716;-122.060;2024-02-23T11:11:29;100536.25;;;17.34;47.13
51053;BME280;37093;37.716;-122.060;2024-02-23T11:13:57;100532.97;;;17.45;46.41
51053;BME280;37093;37.716;-122.060;2024-02-23T11:16:27;100531.85;;;17.22;47.03
51053;BME280;37093;37.716;-122.060;2024-02-23T11:18:44;100527.99;;;17.39;46.64
51053;BME280;37093;37.716;-122.060;2024-02-23T11:21:12;100526.65;;;17.54;46.41
51053;BME280;37093;37.716;-122.060;2024-02-23T11:23:42;100528.33;;;17.61;46.37
51053;BME280;37093;37.716;-122.060;2024-02-23T11:26:09;100524.99;;;17.67;45.62
51053;BME280;37093;37.716;-122.060;2024-02-23T11:28:28;100525.25;;;17.85;45.36
51053;BME280;37093;37.716;-122.060;2024-02-23T11:30:52;100525.14;;;17.80;45.17
51053;BME280;37093;37.716;-122.060;2024-02-23T11:33:50;100526.40;;;17.75;44.85
51053;BME280;37093;37.716;-122.060;2024-02-23T11:35:47;100526.97;;;17.88;44.63
51053;BME280;37093;37.716;-122.060;2024-02-23T11:38:06;100521.00;;;17.75;44.56
51053;BME280;37093;37.716;-122.060;2024-02-23T11:40:32;100519.71;;;17.78;44.88
51053;BME280;37093;37.716;-122.060;2024-02-23T11:42:57;100518.33;;;17.85;44.31
51053;BME280;37093;37.716;-122.060;2024-02-23T11:45:21;100517.56;;;17.83;44.59
51053;BME280;37093;37.716;-122.060;2024-02-23T11:47:46;100516.90;;;17.92;43.96
51053;BME280;37093;37.716;-122.060;2024-02-23T11:50:13;100518.78;;;17.74;44.10
51053;BME280;37093;37.716;-122.060;2024-02-23T11:52:38;100520.17;;;17.85;44.13
51053;BME280;37093;37.716;-122.060;2024-02-23T11:55:12;100514.69;;;17.80;43.75
51053;BME280;37093;37.716;-122.060;2024-02-23T11:57:26;100512.72;;;17.75;44.39
51053;BME280;37093;37.716;-122.060;2024-02-23T12:15:34;100492.86;;;16.86;47.49
51053;BME280;37093;37.716;-122.060;2024-02-23T12:18:00;100480.65;;;16.10;46.22
51053;BME280;37093;37.716;-122.060;2024-02-23T12:20:23;100480.20;;;17.70;44.60
51053;BME280;37093;37.716;-122.060;2024-02-23T12:22:49;100478.19;;;17.77;44.74
51053;BME280;37093;37.716;-122.060;2024-02-23T12:25:15;100475.07;;;17.55;44.26